This is the latest recevied weather packets stored in our database for station/object W4SMH. If no packets are shown the sender has not sent any weather packets the latest 10 day(s).
| Time | Temp. | Humidity | Pressure | Rain* | Wind** | Luminosity | Snow |
|---|---|---|---|---|---|---|---|
| 1778003150 | 12.22° C | 42% | 1006.7 hPa | 0 mm | - | 647 W/m² | - |
| 1778003121 | 12.22° C | 42% | 1006.8 hPa | 0 mm | - | 610 W/m² | - |
| 1778002629 | 12.22° C | 44% | 1006.9 hPa | 0 mm | - | 471 W/m² | - |
| 1778002572 | 12.22° C | 43% | 1007 hPa | 0 mm | - | 469 W/m² | - |
| 1778002040 | 12.78° C | 44% | 1007 hPa | 0 mm | - | 526 W/m² | - |
| 1778001782 | 12.78° C | 43% | 1006.9 hPa | 0 mm | - | 538 W/m² | - |
| 1778001535 | 12.78° C | 45% | 1007 hPa | 0 mm | - | 503 W/m² | - |
| 1778001389 | 12.78° C | 41% | 1007 hPa | 0 mm | - | 455 W/m² | - |
| 1778000409 | 12.78° C | 41% | 1006.6 hPa | 0 mm | - | 680 W/m² | - |
| 1778000046 | 12.78° C | 45% | 1006.6 hPa | 0 mm | - | 545 W/m² | - |
| 1777999784 | 12.78° C | 46% | 1006.4 hPa | 0 mm | - | 673 W/m² | - |
| 1777999557 | 12.78° C | 44% | 1006.5 hPa | 0 mm | - | 557 W/m² | - |
| 1777999504 | 12.78° C | 43% | 1006.5 hPa | 0 mm | - | 557 W/m² | - |
| 1777998991 | 12.78° C | 44% | 1006.3 hPa | 0 mm | - | 673 W/m² | - |
| 1777998951 | 12.78° C | 44% | 1006.3 hPa | 0 mm | - | 735 W/m² | - |
| 1777998891 | 12.78° C | 47% | 1006.3 hPa | 0 mm | - | 798 W/m² | - |
| 1777998746 | 11.67° C | 74% | 1002.8 hPa | 0 mm | - | 0 W/m² | - |
| 1777998725 | 11.67° C | 75% | 1003 hPa | 0 mm | - | 0 W/m² | - |
| 1777998692 | 11.67° C | 75% | 1003 hPa | 0 mm | - | 0 W/m² | - |
| 1777998677 | 11.67° C | 74% | 1003.3 hPa | 0 mm | - | 0 W/m² | - |
| 1777998280 | 12.78° C | 45% | 1006.5 hPa | 0 mm | - | 612 W/m² | - |
| 1777998193 | 12.78° C | 44% | 1006.6 hPa | 0 mm | - | 717 W/m² | - |
| 1777997943 | 12.78° C | 46% | 1006.6 hPa | 0 mm | - | 629 W/m² | - |
| 1777997710 | 12.78° C | 45% | 1006.6 hPa | 0 mm | - | 661 W/m² | - |
| 1777997510 | 12.78° C | 44% | 1006.7 hPa | 0 mm | - | 759 W/m² | - |
* Rain latest hour (hover to see other rain measurements)
** Current wind speed in m/s (hover to see current wind gust speed)